createdAt,value
2023-03-11T00:05:09.411Z,0.02
2023-03-11T00:07:18.006Z,-0.06
2023-03-11T00:09:27.281Z,-0.08
2023-03-11T00:11:32.097Z,0.06
2023-03-11T00:13:37.038Z,-0.06
2023-03-11T00:15:46.756Z,0.03
2023-03-11T00:17:53.274Z,-0.10
2023-03-11T00:19:59.766Z,-0.09
2023-03-11T00:22:06.253Z,-0.19
2023-03-11T00:24:15.629Z,-0.11
2023-03-11T00:26:20.462Z,-0.14
2023-03-11T00:28:26.954Z,-0.19
2023-03-11T00:30:32.358Z,-0.13
2023-03-11T00:32:37.435Z,-0.15
2023-03-11T00:34:44.649Z,-0.26
2023-03-11T00:36:50.906Z,-0.39
2023-03-11T00:38:55.863Z,-0.50
2023-03-11T00:41:06.528Z,-0.49
2023-03-11T00:43:11.520Z,-0.59
2023-03-11T00:45:17.625Z,-0.52
2023-03-11T00:47:22.860Z,-0.62
2023-03-11T00:49:28.189Z,-0.76
2023-03-11T00:51:34.259Z,-0.82
2023-03-11T00:53:39.521Z,-0.84
2023-03-11T00:55:49.352Z,-0.98
2023-03-11T00:57:58.487Z,-1.02
2023-03-11T01:00:04.589Z,-1.07
2023-03-11T01:02:09.597Z,-1.12
2023-03-11T01:04:14.851Z,-1.15
2023-03-11T01:06:19.733Z,-1.16
2023-03-11T01:08:24.839Z,-1.25
2023-03-11T01:10:30.040Z,-1.27
2023-03-11T01:12:40.642Z,-1.36
2023-03-11T01:14:48.270Z,-1.19
2023-03-11T01:16:55.044Z,-1.26
2023-03-11T01:19:01.426Z,-1.34
2023-03-11T01:21:12.080Z,-1.41
2023-03-11T01:23:20.991Z,-1.47
2023-03-11T01:25:27.598Z,-1.48
2023-03-11T01:27:34.503Z,-1.51
2023-03-11T01:29:44.217Z,-1.57
2023-03-11T01:31:51.962Z,-1.63
2023-03-11T01:33:56.891Z,-1.70
2023-03-11T01:36:02.837Z,-1.79
2023-03-11T01:38:10.470Z,-1.80
2023-03-11T01:40:20.376Z,-1.82
2023-03-11T01:42:26.647Z,-1.84
2023-03-11T01:44:33.940Z,-1.86
2023-03-11T01:47:02.360Z,-1.90
2023-03-11T01:49:15.940Z,-1.94
2023-03-11T01:51:27.356Z,-2.01
2023-03-11T01:53:33.067Z,-2.03
2023-03-11T01:55:44.264Z,-2.07
2023-03-11T01:57:50.407Z,-2.12
2023-03-11T02:00:02.160Z,-2.11
2023-03-11T02:02:12.902Z,-2.11
2023-03-11T02:04:20.796Z,-2.11
2023-03-11T02:06:28.368Z,-2.09
2023-03-11T02:08:35.924Z,-2.15
2023-03-11T02:10:44.163Z,-2.18
2023-03-11T02:12:51.746Z,-2.21
2023-03-11T02:14:56.977Z,-2.20
2023-03-11T02:17:03.952Z,-2.24
2023-03-11T02:19:19.141Z,-2.26
2023-03-11T02:21:30.722Z,-2.31
2023-03-11T02:23:48.648Z,-2.35
2023-03-11T02:26:08.051Z,-2.36
2023-03-11T02:28:17.867Z,-2.37
2023-03-11T02:30:26.893Z,-2.33
2023-03-11T02:32:32.799Z,-2.30
2023-03-11T02:34:41.399Z,-2.37
2023-03-11T02:36:46.491Z,-2.38
2023-03-11T02:38:53.997Z,-2.45
2023-03-11T02:41:05.615Z,-2.45
2023-03-11T02:43:17.506Z,-2.48
2023-03-11T02:45:26.376Z,-2.49
2023-03-11T02:47:31.688Z,-2.49
2023-03-11T02:49:40.035Z,-2.48
2023-03-11T02:51:44.837Z,-2.43
2023-03-11T02:53:56.649Z,-2.39
2023-03-11T02:56:04.657Z,-2.40
2023-03-11T02:58:12.287Z,-2.34
2023-03-11T03:00:21.347Z,-2.31
2023-03-11T03:02:26.503Z,-2.29
2023-03-11T03:04:33.180Z,-2.27
2023-03-11T03:06:38.171Z,-2.24
2023-03-11T03:08:43.240Z,-2.30
2023-03-11T03:10:48.106Z,-2.36
2023-03-11T03:12:53.135Z,-2.39
2023-03-11T03:14:58.344Z,-2.43
2023-03-11T03:17:06.160Z,-2.47
2023-03-11T03:19:14.779Z,-2.48
2023-03-11T03:21:21.369Z,-2.52
2023-03-11T03:23:26.708Z,-2.56
2023-03-11T03:25:32.194Z,-2.56
2023-03-11T03:27:38.502Z,-2.58
2023-03-11T03:29:46.480Z,-2.62
2023-03-11T03:31:51.774Z,-2.69
2023-03-11T03:34:00.621Z,-2.70
2023-03-11T03:36:13.391Z,-2.71
2023-03-11T03:38:20.484Z,-2.60
2023-03-11T03:40:28.376Z,-2.66
2023-03-11T03:42:33.905Z,-2.66
2023-03-11T03:44:43.266Z,-2.73
2023-03-11T03:46:49.563Z,-2.75
2023-03-11T03:48:54.456Z,-2.77
2023-03-11T03:51:06.333Z,-2.78
2023-03-11T03:53:11.504Z,-2.84
2023-03-11T03:55:16.365Z,-2.87
2023-03-11T03:57:21.342Z,-2.92
2023-03-11T03:59:28.619Z,-2.97
2023-03-11T04:01:33.727Z,-2.99
2023-03-11T04:03:40.133Z,-3.01
2023-03-11T04:05:45.107Z,-3.05
2023-03-11T04:07:52.607Z,-3.06
2023-03-11T04:09:57.734Z,-3.07
2023-03-11T04:12:02.913Z,-3.09
2023-03-11T04:14:08.792Z,-3.07
2023-03-11T04:16:22.334Z,-3.10
2023-03-11T04:18:27.577Z,-3.10
2023-03-11T04:20:33.535Z,-3.15
2023-03-11T04:22:41.644Z,-3.17
2023-03-11T04:24:50.966Z,-3.16
2023-03-11T04:26:55.957Z,-3.18
2023-03-11T04:29:11.642Z,-3.18
2023-03-11T04:31:18.111Z,-3.21
2023-03-11T04:33:25.162Z,-3.19
2023-03-11T04:35:30.114Z,-3.22
2023-03-11T04:37:36.231Z,-3.23
2023-03-11T04:39:41.211Z,-3.24
2023-03-11T04:41:49.231Z,-3.20
2023-03-11T04:43:56.824Z,-3.15
2023-03-11T04:46:01.788Z,-3.15
2023-03-11T04:48:08.443Z,-3.12
2023-03-11T04:50:15.545Z,-3.11
2023-03-11T04:52:20.268Z,-3.21
2023-03-11T04:54:25.175Z,-3.25
2023-03-11T04:56:32.230Z,-3.30
2023-03-11T04:58:44.812Z,-3.35
2023-03-11T05:00:59.232Z,-3.41
2023-03-11T05:03:04.475Z,-3.41
2023-03-11T05:05:13.731Z,-3.43
2023-03-11T05:07:19.311Z,-3.43
2023-03-11T05:09:26.462Z,-3.49
2023-03-11T05:11:31.206Z,-3.52
2023-03-11T05:13:39.916Z,-3.50
2023-03-11T05:15:48.603Z,-3.53
2023-03-11T05:17:56.354Z,-3.62
2023-03-11T05:20:01.332Z,-3.65
2023-03-11T05:22:08.098Z,-3.65
2023-03-11T05:24:12.897Z,-3.62
2023-03-11T05:26:25.637Z,-3.64
2023-03-11T05:28:32.918Z,-3.60
2023-03-11T05:30:39.501Z,-3.58
2023-03-11T05:32:47.301Z,-3.49
2023-03-11T05:34:54.374Z,-3.49
2023-03-11T05:37:04.122Z,-3.48
2023-03-11T05:39:08.945Z,-3.46
2023-03-11T05:41:14.083Z,-3.51
2023-03-11T05:43:24.121Z,-3.53
2023-03-11T05:45:29.652Z,-3.51
2023-03-11T05:47:34.697Z,-3.51
2023-03-11T05:49:43.786Z,-3.47
2023-03-11T05:51:51.320Z,-3.55
2023-03-11T05:54:05.336Z,-3.59
2023-03-11T05:56:13.357Z,-3.61
2023-03-11T05:58:18.412Z,-3.59
2023-03-11T06:00:24.337Z,-3.63
2023-03-11T06:02:29.300Z,-3.65
2023-03-11T06:04:34.442Z,-3.70
2023-03-11T06:06:42.896Z,-3.75
2023-03-11T06:08:50.025Z,-3.74
2023-03-11T06:10:55.044Z,-3.74
2023-03-11T06:12:59.856Z,-3.73
2023-03-11T06:15:04.800Z,-3.66
2023-03-11T06:17:11.042Z,-3.70
2023-03-11T06:19:16.379Z,-3.70
2023-03-11T06:21:27.277Z,-3.70
2023-03-11T06:23:34.726Z,-3.72
2023-03-11T06:25:43.459Z,-3.78
2023-03-11T06:27:52.569Z,-3.71
2023-03-11T06:30:00.326Z,-3.74
2023-03-11T06:32:05.404Z,-3.70
2023-03-11T06:34:15.958Z,-3.67
2023-03-11T06:36:22.298Z,-3.66
2023-03-11T06:38:27.402Z,-3.62
2023-03-11T06:40:35.695Z,-3.63
2023-03-11T06:42:40.513Z,-3.56
2023-03-11T06:44:45.388Z,-3.55
2023-03-11T06:46:52.222Z,-3.53
2023-03-11T06:49:00.109Z,-3.44
2023-03-11T06:51:05.268Z,-3.39
2023-03-11T06:53:14.050Z,-3.37
2023-03-11T06:55:21.318Z,-3.31
2023-03-11T06:57:29.553Z,-3.33
2023-03-11T06:59:37.649Z,-3.29
2023-03-11T07:01:43.005Z,-3.29
2023-03-11T07:03:49.769Z,-3.19
2023-03-11T07:05:55.829Z,-3.22
2023-03-11T07:08:00.982Z,-3.23
2023-03-11T07:10:05.964Z,-3.20
2023-03-11T07:12:12.240Z,-3.16
2023-03-11T07:14:24.467Z,-3.19
2023-03-11T07:16:32.962Z,-3.12
2023-03-11T07:18:42.000Z,-3.01
2023-03-11T07:20:47.387Z,-2.90
2023-03-11T07:22:54.525Z,-2.85
2023-03-11T07:24:59.556Z,-2.69
2023-03-11T07:27:07.850Z,-2.66
2023-03-11T07:29:17.250Z,-2.62
2023-03-11T07:31:27.151Z,-2.63
2023-03-11T07:33:34.191Z,-2.53
2023-03-11T07:35:41.833Z,-2.41
2023-03-11T07:37:47.200Z,-2.47
2023-03-11T07:39:52.813Z,-2.44
2023-03-11T07:41:57.775Z,-2.26
2023-03-11T07:44:03.981Z,-2.08
2023-03-11T07:46:11.138Z,-1.87
2023-03-11T07:48:18.581Z,-1.57
2023-03-11T07:50:24.242Z,-1.33
2023-03-11T07:52:29.081Z,-1.09
2023-03-11T07:54:34.057Z,-0.90
2023-03-11T07:56:39.092Z,-0.80
2023-03-11T07:58:48.331Z,-0.65
2023-03-11T08:01:07.436Z,-0.41
2023-03-11T08:03:12.354Z,-0.24
2023-03-11T08:05:21.056Z,0.05
2023-03-11T08:07:26.046Z,0.18
2023-03-11T08:09:30.881Z,0.29
2023-03-11T08:11:36.135Z,0.48
2023-03-11T08:13:41.174Z,0.74
2023-03-11T08:15:46.616Z,0.97
2023-03-11T08:17:51.598Z,1.19
2023-03-11T08:19:59.446Z,1.47
2023-03-11T08:22:10.014Z,1.74
2023-03-11T08:24:16.497Z,1.89
2023-03-11T08:26:23.992Z,2.07
2023-03-11T08:28:28.993Z,2.26
2023-03-11T08:30:33.829Z,2.35
2023-03-11T08:32:38.892Z,2.54
2023-03-11T08:34:44.172Z,2.76
2023-03-11T08:36:49.952Z,2.98
2023-03-11T08:38:59.267Z,3.04
2023-03-11T08:41:04.329Z,3.13
2023-03-11T08:43:11.491Z,3.22
2023-03-11T08:45:16.761Z,3.39
2023-03-11T08:47:22.927Z,3.39
2023-03-11T08:49:27.718Z,3.40
2023-03-11T08:51:34.387Z,3.60
2023-03-11T08:53:44.574Z,3.77
2023-03-11T08:55:52.627Z,3.65
2023-03-11T08:57:59.313Z,3.59
2023-03-11T09:00:13.112Z,3.80
2023-03-11T09:02:20.594Z,3.96
2023-03-11T09:04:25.722Z,4.06
2023-03-11T09:06:30.671Z,3.96
2023-03-11T09:08:36.769Z,4.04
2023-03-11T09:10:47.420Z,4.16
2023-03-11T09:12:56.344Z,4.11
2023-03-11T09:15:01.274Z,4.01
2023-03-11T09:17:12.548Z,3.89
2023-03-11T09:19:23.013Z,3.76
2023-03-11T09:21:27.952Z,3.59
2023-03-11T09:23:35.890Z,3.63
2023-03-11T09:25:50.020Z,3.66
2023-03-11T09:28:00.519Z,3.69
2023-03-11T09:30:06.005Z,3.72
2023-03-11T09:32:15.369Z,3.77
2023-03-11T09:34:21.551Z,3.90
2023-03-11T09:36:28.828Z,3.95
2023-03-11T09:38:36.141Z,4.08
2023-03-11T09:40:54.450Z,4.28
2023-03-11T09:43:16.571Z,4.43
2023-03-11T09:45:27.737Z,4.43
2023-03-11T09:48:04.656Z,4.51
2023-03-11T09:50:26.358Z,4.52
2023-03-11T09:52:47.003Z,4.35
2023-03-11T09:54:59.011Z,4.40
2023-03-11T09:57:32.923Z,4.42
2023-03-11T09:59:47.222Z,4.59
2023-03-11T10:01:53.443Z,4.60
2023-03-11T10:04:02.309Z,4.53
2023-03-11T10:06:16.958Z,4.62
2023-03-11T10:08:37.611Z,4.61
2023-03-11T10:11:04.050Z,4.59
2023-03-11T10:13:20.952Z,4.70
2023-03-11T10:15:43.119Z,4.73
2023-03-11T10:17:59.126Z,4.65
2023-03-11T10:20:08.632Z,4.72
2023-03-11T10:22:21.022Z,4.70
2023-03-11T10:24:55.233Z,4.92
2023-03-11T10:27:05.372Z,5.09
2023-03-11T10:29:19.446Z,4.89
2023-03-11T10:31:33.652Z,4.99
2023-03-11T10:33:48.743Z,4.85
2023-03-11T10:36:00.145Z,4.76
2023-03-11T10:38:13.477Z,4.91
2023-03-11T10:40:32.378Z,4.74
2023-03-11T10:42:38.890Z,4.55
2023-03-11T10:44:46.082Z,4.71
2023-03-11T10:46:58.829Z,4.93
2023-03-11T10:49:08.277Z,5.07
2023-03-11T10:51:22.588Z,5.20
2023-03-11T10:53:30.710Z,5.20
2023-03-11T10:55:36.173Z,5.24
2023-03-11T10:57:41.806Z,5.53
2023-03-11T10:59:55.087Z,5.39
2023-03-11T11:02:21.774Z,5.54
2023-03-11T11:04:32.249Z,5.65
2023-03-11T11:06:41.939Z,5.60
2023-03-11T11:08:49.717Z,5.87
2023-03-11T11:10:59.584Z,5.90
2023-03-11T11:13:06.817Z,6.01
2023-03-11T11:15:26.540Z,6.35
2023-03-11T11:17:39.846Z,6.41
2023-03-11T11:19:50.596Z,6.42
2023-03-11T11:21:55.666Z,6.65
2023-03-11T11:24:15.190Z,6.77
2023-03-11T11:26:27.867Z,6.80
2023-03-11T11:28:40.060Z,6.75
2023-03-11T11:31:00.135Z,7.06
2023-03-11T11:33:32.585Z,7.17
2023-03-11T11:35:39.588Z,7.56
2023-03-11T11:38:04.420Z,7.55
2023-03-11T11:40:27.994Z,7.36
2023-03-11T11:42:33.909Z,7.58
2023-03-11T11:44:51.832Z,7.66
2023-03-11T11:47:09.139Z,7.08
2023-03-11T11:49:23.618Z,7.36
2023-03-11T11:51:34.766Z,7.33
2023-03-11T11:53:47.224Z,7.07
2023-03-11T11:55:54.350Z,7.39
2023-03-11T11:58:04.354Z,7.21
2023-03-11T12:00:21.200Z,7.20
2023-03-11T12:02:43.135Z,7.35
2023-03-11T12:04:59.125Z,7.18
2023-03-11T12:07:26.077Z,7.65
2023-03-11T12:09:41.909Z,7.97
2023-03-11T12:11:57.496Z,8.20
2023-03-11T12:14:12.055Z,8.14
2023-03-11T12:16:26.214Z,8.05
2023-03-11T12:18:37.176Z,8.20
2023-03-11T12:20:51.573Z,8.22
2023-03-11T12:23:24.453Z,7.95
2023-03-11T12:25:38.460Z,8.05
2023-03-11T12:27:54.825Z,7.80
2023-03-11T12:30:19.861Z,7.82
2023-03-11T12:32:35.518Z,7.69
2023-03-11T12:34:41.323Z,7.99
2023-03-11T12:36:53.326Z,7.87
2023-03-11T12:38:59.772Z,8.28
2023-03-11T12:41:10.367Z,7.98
2023-03-11T12:43:48.426Z,7.90
2023-03-11T12:45:55.775Z,7.85
2023-03-11T12:48:36.649Z,8.23
2023-03-11T12:50:45.046Z,8.31
2023-03-11T12:53:07.455Z,8.64
2023-03-11T12:55:34.729Z,7.93
2023-03-11T12:57:44.366Z,7.91
2023-03-11T13:00:23.164Z,7.65
2023-03-11T13:02:47.570Z,8.07
2023-03-11T13:05:02.024Z,8.03
2023-03-11T13:07:36.812Z,8.17
2023-03-11T13:09:44.367Z,7.93
2023-03-11T13:11:51.400Z,7.94
2023-03-11T13:14:12.448Z,8.44
2023-03-11T13:16:41.729Z,8.47
2023-03-11T13:18:48.160Z,8.46
2023-03-11T13:20:59.032Z,8.44
2023-03-11T13:23:23.024Z,8.88
2023-03-11T13:25:38.776Z,9.18
2023-03-11T13:27:49.727Z,9.04
2023-03-11T13:30:04.343Z,8.82
2023-03-11T13:32:53.118Z,8.67
2023-03-11T13:35:13.060Z,8.49
2023-03-11T13:37:38.944Z,9.29
2023-03-11T13:39:56.558Z,8.73
2023-03-11T13:42:05.780Z,9.17
2023-03-11T13:44:19.769Z,9.11
2023-03-11T13:46:31.765Z,8.58
2023-03-11T13:48:45.152Z,7.98
2023-03-11T13:50:53.965Z,7.88
2023-03-11T13:53:01.679Z,8.00
2023-03-11T13:55:09.251Z,7.96
2023-03-11T13:57:27.636Z,7.78
2023-03-11T13:59:35.057Z,8.42
2023-03-11T14:01:40.168Z,8.77
2023-03-11T14:03:47.887Z,8.66
2023-03-11T14:05:58.712Z,8.70
2023-03-11T14:08:15.539Z,8.84
2023-03-11T14:10:26.369Z,9.09
2023-03-11T14:12:36.152Z,8.74
2023-03-11T14:14:56.811Z,9.16
2023-03-11T14:17:07.720Z,9.30
2023-03-11T14:19:26.121Z,9.02
2023-03-11T14:21:34.160Z,8.70
2023-03-11T14:23:45.447Z,8.88
2023-03-11T14:26:02.439Z,9.15
2023-03-11T14:28:10.470Z,9.18
2023-03-11T14:30:23.403Z,9.46
2023-03-11T14:32:32.506Z,8.81
2023-03-11T14:34:46.285Z,9.26
2023-03-11T14:36:55.329Z,9.55
2023-03-11T14:39:00.695Z,8.97
2023-03-11T14:41:14.832Z,8.18
2023-03-11T14:43:26.319Z,8.33
2023-03-11T14:45:33.430Z,8.15
2023-03-11T14:47:43.390Z,8.46
2023-03-11T14:49:50.787Z,8.62
2023-03-11T14:55:54.747Z,9.24
2023-03-11T14:58:05.019Z,9.13
2023-03-11T15:00:21.493Z,9.06
2023-03-11T15:02:45.300Z,9.35
2023-03-11T15:04:55.720Z,9.45
2023-03-11T15:07:01.644Z,9.72
2023-03-11T15:09:11.623Z,9.57
2023-03-11T15:11:25.577Z,9.46
2023-03-11T15:13:31.401Z,9.47
2023-03-11T15:15:40.426Z,9.86
2023-03-11T15:17:58.355Z,9.47
2023-03-11T15:20:04.958Z,9.54
2023-03-11T15:22:27.207Z,9.64
2023-03-11T15:24:35.537Z,9.70
2023-03-11T15:26:42.700Z,9.46
2023-03-11T15:28:47.632Z,9.29
2023-03-11T15:31:15.300Z,9.65
2023-03-11T15:33:25.160Z,9.20
2023-03-11T15:35:32.805Z,9.39
2023-03-11T15:37:37.987Z,8.28
2023-03-11T15:39:51.317Z,8.77
2023-03-11T15:42:03.675Z,8.92
2023-03-11T15:44:10.089Z,8.54
2023-03-11T15:46:17.934Z,8.40
2023-03-11T15:48:28.062Z,8.34
2023-03-11T15:50:46.922Z,8.45
2023-03-11T15:53:00.501Z,8.45
2023-03-11T15:55:12.731Z,8.22
2023-03-11T15:57:27.581Z,7.72
2023-03-11T15:59:33.300Z,7.76
2023-03-11T16:01:40.783Z,7.79
2023-03-11T16:03:45.540Z,7.57
2023-03-11T16:05:50.679Z,7.78
2023-03-11T16:07:55.415Z,7.70
2023-03-11T16:10:04.374Z,7.64
2023-03-11T16:12:17.907Z,7.68
2023-03-11T16:14:23.688Z,7.45
2023-03-11T16:16:28.466Z,7.30
2023-03-11T16:18:38.670Z,6.99
2023-03-11T16:20:46.941Z,7.06
2023-03-11T16:22:56.509Z,6.83
2023-03-11T16:25:02.700Z,6.65
2023-03-11T16:27:07.607Z,6.27
2023-03-11T16:29:19.260Z,6.42
2023-03-11T16:31:24.524Z,6.44
2023-03-11T16:33:29.349Z,6.50
2023-03-11T16:35:37.044Z,6.40
2023-03-11T16:37:44.042Z,6.24
2023-03-11T16:39:49.054Z,6.35
2023-03-11T16:41:53.789Z,6.23
2023-03-11T16:43:58.512Z,6.06
2023-03-11T16:46:03.626Z,5.99
2023-03-11T16:48:09.088Z,5.92
2023-03-11T16:50:15.361Z,5.69
2023-03-11T16:52:23.610Z,5.76
2023-03-11T16:54:28.280Z,5.74
2023-03-11T16:56:33.389Z,5.52
2023-03-11T16:58:38.041Z,5.43
2023-03-11T17:00:42.909Z,5.23
2023-03-11T17:02:47.759Z,5.29
2023-03-11T17:04:52.767Z,5.16
2023-03-11T17:06:58.076Z,5.12
2023-03-11T17:09:05.581Z,4.98
2023-03-11T17:11:17.278Z,4.95
2023-03-11T17:13:22.119Z,4.87
2023-03-11T17:15:26.852Z,4.80
2023-03-11T17:17:31.747Z,4.75
2023-03-11T17:19:36.759Z,4.69
2023-03-11T17:21:42.215Z,4.62
2023-03-11T17:23:47.070Z,4.59
2023-03-11T17:25:54.410Z,4.57
2023-03-11T17:28:00.541Z,4.55
2023-03-11T17:30:08.646Z,4.47
2023-03-11T17:32:17.336Z,4.42
2023-03-11T17:34:23.299Z,4.32
2023-03-11T17:36:28.907Z,4.33
2023-03-11T17:38:33.830Z,4.29
2023-03-11T17:40:38.456Z,4.30
2023-03-11T17:42:48.404Z,4.29
2023-03-11T17:44:53.424Z,4.25
2023-03-11T17:46:58.140Z,4.22
2023-03-11T17:49:03.248Z,4.19
2023-03-11T17:51:10.350Z,4.16
2023-03-11T17:53:15.094Z,4.09
2023-03-11T17:55:19.985Z,4.07
2023-03-11T17:57:24.677Z,4.01
2023-03-11T17:59:34.285Z,3.93
2023-03-11T18:01:39.962Z,3.90
2023-03-11T18:03:45.147Z,3.85
2023-03-11T18:05:57.666Z,3.77
2023-03-11T18:08:02.340Z,3.72
2023-03-11T18:10:08.143Z,3.62
2023-03-11T18:15:19.629Z,3.48
2023-03-11T18:17:24.371Z,3.44
2023-03-11T18:19:29.229Z,3.40
2023-03-11T18:21:34.769Z,3.33
2023-03-11T18:23:40.170Z,3.29
2023-03-11T18:25:45.166Z,3.26
2023-03-11T18:27:50.068Z,3.19
2023-03-11T18:29:54.858Z,3.14
2023-03-11T18:32:02.293Z,3.08
2023-03-11T18:34:13.610Z,3.05
2023-03-11T18:36:20.452Z,3.03
2023-03-11T18:38:25.348Z,2.96
2023-03-11T18:40:30.926Z,2.91
2023-03-11T18:42:36.038Z,2.83
2023-03-11T18:44:41.936Z,2.79
2023-03-11T18:46:47.187Z,2.74
2023-03-11T18:48:56.984Z,2.70
2023-03-11T18:51:01.719Z,2.64
2023-03-11T18:53:06.897Z,2.59
2023-03-11T18:55:12.294Z,2.52
2023-03-11T18:57:17.102Z,2.48
2023-03-11T18:59:21.886Z,2.47
2023-03-11T19:01:28.753Z,2.49
2023-03-11T19:03:33.546Z,2.73
2023-03-11T19:05:41.435Z,2.75
2023-03-11T19:07:46.492Z,2.73
2023-03-11T19:09:52.061Z,2.61
2023-03-11T19:11:56.935Z,2.59
2023-03-11T19:14:01.711Z,2.57
2023-03-11T19:16:07.184Z,2.60
2023-03-11T19:18:12.168Z,2.66
2023-03-11T19:20:17.090Z,2.57
2023-03-11T19:22:27.599Z,2.61
2023-03-11T19:24:32.252Z,2.64
2023-03-11T19:26:44.786Z,2.64
2023-03-11T19:28:50.480Z,2.55
2023-03-11T19:30:56.719Z,2.50
2023-03-11T19:33:01.568Z,2.45
2023-03-11T19:35:06.585Z,2.44
2023-03-11T19:37:11.487Z,2.45
2023-03-11T19:39:22.190Z,2.41
2023-03-11T19:41:27.208Z,2.40
2023-03-11T19:43:32.406Z,2.41
2023-03-11T19:45:37.238Z,2.40
2023-03-11T19:47:43.125Z,2.42
2023-03-11T19:49:47.896Z,2.48
2023-03-11T19:51:53.083Z,2.47
2023-03-11T19:53:59.760Z,2.45
2023-03-11T19:56:07.744Z,2.41
2023-03-11T19:58:12.656Z,2.36
2023-03-11T20:00:19.315Z,2.32
2023-03-11T20:02:24.432Z,2.28
2023-03-11T20:04:32.547Z,2.22
2023-03-11T20:06:37.883Z,2.19
2023-03-11T20:08:42.879Z,2.15
2023-03-11T20:10:51.540Z,2.10
2023-03-11T20:13:02.550Z,2.05
2023-03-11T20:15:19.443Z,2.03
2023-03-11T20:17:24.384Z,1.98
2023-03-11T20:19:29.400Z,1.99
2023-03-11T20:21:39.070Z,1.98
2023-03-11T20:23:49.199Z,2.01
2023-03-11T20:25:54.022Z,2.06
2023-03-11T20:28:01.839Z,2.03
2023-03-11T20:30:07.711Z,2.02
2023-03-11T20:32:12.557Z,2.01
2023-03-11T20:34:17.340Z,1.98
2023-03-11T20:36:25.268Z,2.04
2023-03-11T20:38:30.009Z,2.08
2023-03-11T20:40:36.091Z,2.11
2023-03-11T20:42:43.774Z,2.11
2023-03-11T20:44:54.802Z,2.12
2023-03-11T20:47:01.811Z,2.19
2023-03-11T20:49:08.770Z,2.25
2023-03-11T20:51:16.017Z,2.32
2023-03-11T20:53:21.468Z,2.38
2023-03-11T20:55:26.407Z,2.42
2023-03-11T20:57:31.210Z,2.45
2023-03-11T20:59:36.822Z,2.47
2023-03-11T21:01:45.950Z,2.58
2023-03-11T21:03:50.916Z,2.61
2023-03-11T21:05:55.784Z,2.61
2023-03-11T21:08:00.920Z,2.57
2023-03-11T21:10:09.081Z,2.54
2023-03-11T21:12:14.033Z,2.57
2023-03-11T21:14:20.720Z,2.54
2023-03-11T21:16:26.983Z,2.62
2023-03-11T21:18:34.941Z,2.60
2023-03-11T21:20:40.520Z,2.56
2023-03-11T21:22:46.212Z,2.61
2023-03-11T21:24:54.173Z,2.56
2023-03-11T21:26:59.201Z,2.51
2023-03-11T21:29:03.980Z,2.52
2023-03-11T21:31:13.278Z,2.59
2023-03-11T21:33:18.327Z,2.57
2023-03-11T21:35:25.982Z,2.54
2023-03-11T21:37:31.685Z,2.51
2023-03-11T21:39:36.774Z,2.50
2023-03-11T21:41:41.680Z,2.48
2023-03-11T21:43:47.291Z,2.50
2023-03-11T21:45:54.042Z,2.53
2023-03-11T21:47:58.895Z,2.53
2023-03-11T21:50:03.558Z,2.55
2023-03-11T21:52:11.497Z,2.55
2023-03-11T21:54:16.453Z,2.56
2023-03-11T21:56:21.281Z,2.58
2023-03-11T21:58:26.400Z,2.63
2023-03-11T22:00:31.125Z,2.67
2023-03-11T22:02:36.034Z,2.66
2023-03-11T22:04:40.730Z,2.66
2023-03-11T22:06:45.950Z,2.72
2023-03-11T22:08:53.511Z,2.73
2023-03-11T22:10:58.594Z,2.66
2023-03-11T22:13:07.149Z,2.70
2023-03-11T22:15:13.202Z,2.65
2023-03-11T22:17:17.989Z,2.61
2023-03-11T22:19:22.923Z,2.66
2023-03-11T22:21:27.718Z,2.66
2023-03-11T22:23:32.474Z,2.71
2023-03-11T22:25:40.236Z,2.68
2023-03-11T22:27:44.866Z,2.77
2023-03-11T22:29:49.697Z,2.79
2023-03-11T22:31:54.653Z,2.84
2023-03-11T22:34:03.176Z,2.83
2023-03-11T22:36:09.597Z,2.83
2023-03-11T22:38:14.734Z,2.85
2023-03-11T22:40:19.583Z,2.86
2023-03-11T22:42:26.933Z,2.91
2023-03-11T22:44:31.628Z,2.84
2023-03-11T22:46:36.960Z,2.86
2023-03-11T22:48:41.715Z,2.84
2023-03-11T22:50:47.605Z,2.82
2023-03-11T22:52:52.281Z,2.77
2023-03-11T22:54:57.140Z,2.67
2023-03-11T22:57:01.877Z,2.63
2023-03-11T22:59:09.247Z,2.57
2023-03-11T23:01:16.560Z,2.59
2023-03-11T23:03:21.538Z,2.60
2023-03-11T23:05:26.806Z,2.60
2023-03-11T23:07:31.722Z,2.58
2023-03-11T23:09:38.303Z,2.57
2023-03-11T23:11:43.169Z,2.60
2023-03-11T23:13:47.944Z,2.62
2023-03-11T23:15:55.443Z,2.60
2023-03-11T23:18:00.167Z,2.57
2023-03-11T23:20:05.304Z,2.59
2023-03-11T23:22:12.306Z,2.68
2023-03-11T23:24:17.012Z,2.71
2023-03-11T23:26:22.494Z,2.72
2023-03-11T23:28:27.157Z,2.71
2023-03-11T23:30:32.376Z,2.79
2023-03-11T23:32:40.047Z,2.85
2023-03-11T23:34:46.205Z,2.76
2023-03-11T23:36:51.248Z,2.84
2023-03-11T23:38:56.229Z,2.86
2023-03-11T23:41:01.020Z,2.85
2023-03-11T23:43:05.797Z,2.84
2023-03-11T23:45:11.964Z,2.80
2023-03-11T23:47:16.832Z,2.77
2023-03-11T23:49:24.355Z,2.76
2023-03-11T23:51:28.982Z,2.74
2023-03-11T23:53:34.634Z,2.74
2023-03-11T23:55:40.478Z,2.70
2023-03-11T23:57:45.145Z,2.71
2023-03-11T23:59:49.789Z,2.75
